Time;durP1;ratioP1;P1;durP2;ratioP2;P2;SDS_P1;SDS_P2;PMS_P1;PMS_P2;Temp;Humidity;BMP_temperature;BMP_pressure;BME280_temperature;BME280_humidity;BME280_pressure;Samples;Min_cycle;Max_cycle;Signal;HPM_P1;HPM_P2
2022/04/29 00:00:59;;;;;;;15.73;11.07;;;;;;;10.27;100.00;95261.31;5023514;28;20207;-79
2022/04/29 00:03:26;;;;;;;14.77;10.57;;;;;;;10.27;100.00;95264.72;5022052;28;20207;-78
2022/04/29 00:05:53;;;;;;;13.63;10.30;;;;;;;10.33;100.00;95263.13;5021471;28;20577;-79
2022/04/29 00:08:20;;;;;;;14.10;11.03;;;;;;;10.23;100.00;95253.91;5022935;28;20215;-79
2022/04/29 00:10:47;;;;;;;14.03;10.50;;;;;;;10.13;100.00;95237.13;5025638;28;20282;-79
2022/04/29 00:13:17;;;;;;;14.93;11.20;;;;;;;10.08;100.00;95258.47;5019279;28;20200;-78
2022/04/29 00:15:44;;;;;;;15.40;11.23;;;;;;;10.01;100.00;95249.09;5023189;28;20222;-79
2022/04/29 00:18:11;;;;;;;15.60;10.93;;;;;;;9.89;100.00;95246.31;5024985;28;20620;-79
2022/04/29 00:20:39;;;;;;;15.13;10.67;;;;;;;9.89;100.00;95243.69;5024398;28;20210;-79
2022/04/29 00:23:06;;;;;;;13.87;10.30;;;;;;;9.98;100.00;95239.91;5022727;28;20556;-80
2022/04/29 00:25:33;;;;;;;14.37;10.80;;;;;;;10.04;100.00;95248.72;5022901;28;20231;-80
2022/04/29 00:28:00;;;;;;;14.33;10.80;;;;;;;9.98;100.00;95250.31;5018619;28;20234;-79
2022/04/29 00:30:28;;;;;;;14.03;10.87;;;;;;;9.95;100.00;95250.69;5022867;28;20576;-79
2022/04/29 00:32:55;;;;;;;14.73;11.10;;;;;;;9.93;100.00;95238.88;5020988;28;20198;-79
2022/04/29 00:35:23;;;;;;;14.73;10.60;;;;;;;9.94;100.00;95243.91;5024935;28;20261;-79
2022/04/29 00:37:51;;;;;;;16.13;11.17;;;;;;;9.90;100.00;95247.88;5019763;28;20587;-79
2022/04/29 00:40:19;;;;;;;17.23;12.07;;;;;;;9.91;100.00;95230.50;5021512;28;20191;-80
2022/04/29 00:42:47;;;;;;;15.20;10.60;;;;;;;9.98;100.00;95239.13;5026155;28;20195;-80
2022/04/29 00:45:15;;;;;;;16.83;11.33;;;;;;;9.94;100.00;95232.72;5023904;28;20688;-80
2022/04/29 00:47:44;;;;;;;16.20;11.37;;;;;;;10.00;100.00;95243.09;5022955;28;20276;-80
2022/04/29 00:50:12;;;;;;;16.83;11.43;;;;;;;10.04;100.00;95243.50;5024640;28;20213;-83
2022/04/29 00:52:42;;;;;;;16.47;11.93;;;;;;;9.95;100.00;95229.94;5026348;28;20293;-80
2022/04/29 00:55:12;;;;;;;16.07;11.07;;;;;;;10.00;100.00;95234.50;5026062;28;20589;-81
2022/04/29 00:57:45;;;;;;;14.50;10.87;;;;;;;9.97;100.00;95233.13;5021551;28;20252;-81
2022/04/29 01:00:15;;;;;;;16.80;11.17;;;;;;;10.03;100.00;95236.72;5022316;28;20195;-81
2022/04/29 01:02:44;;;;;;;16.23;11.70;;;;;;;10.05;100.00;95232.09;5024746;28;20206;-81
2022/04/29 01:05:13;;;;;;;15.70;11.30;;;;;;;10.05;100.00;95224.31;5026380;28;20211;-81
2022/04/29 01:07:41;;;;;;;16.70;12.10;;;;;;;10.09;100.00;95222.94;5028947;28;20218;-81
2022/04/29 01:10:12;;;;;;;17.03;12.07;;;;;;;10.17;100.00;95217.56;5028043;28;20206;-81
2022/04/29 01:12:41;;;;;;;15.33;10.57;;;;;;;10.22;100.00;95222.94;5022330;28;20198;-80
2022/04/29 01:15:10;;;;;;;15.43;11.53;;;;;;;10.25;100.00;95223.34;5022133;28;20222;-80
2022/04/29 01:17:39;;;;;;;16.00;10.83;;;;;;;10.27;100.00;95225.75;5021420;28;20576;-81
2022/04/29 01:20:10;;;;;;;14.70;11.17;;;;;;;10.27;100.00;95225.75;5023336;28;20207;-81
2022/04/29 01:22:38;;;;;;;15.60;11.90;;;;;;;10.31;100.00;95226.13;5021464;28;20199;-81
2022/04/29 01:25:05;;;;;;;18.17;11.40;;;;;;;10.32;100.00;95228.53;5023818;28;20580;-81
2022/04/29 01:27:32;;;;;;;17.37;11.70;;;;;;;10.29;100.00;95213.34;5023150;28;20648;-82
2022/04/29 01:30:02;;;;;;;15.57;11.27;;;;;;;10.26;100.00;95221.56;5022137;28;20206;-81
2022/04/29 01:32:31;;;;;;;16.53;11.97;;;;;;;10.27;100.00;95221.34;5021910;28;20199;-81
2022/04/29 01:34:58;;;;;;;16.47;11.73;;;;;;;10.30;100.00;95219.34;5024101;28;20249;-80
2022/04/29 01:37:25;;;;;;;18.70;12.27;;;;;;;10.34;100.00;95220.53;5021891;28;20202;-81
2022/04/29 01:39:53;;;;;;;17.20;11.90;;;;;;;10.35;100.00;95219.53;5024436;28;20595;-80
2022/04/29 01:42:20;;;;;;;19.07;11.33;;;;;;;10.37;100.00;95218.34;5021349;28;20296;-81
2022/04/29 01:44:47;;;;;;;17.23;11.67;;;;;;;10.46;100.00;95218.91;5022333;28;20220;-81
2022/04/29 01:47:15;;;;;;;18.60;13.00;;;;;;;10.53;100.00;95217.13;5023929;28;20199;-80
2022/04/29 01:49:42;;;;;;;20.07;12.93;;;;;;;10.57;100.00;95226.88;5020993;28;20307;-82
2022/04/29 01:52:10;;;;;;;18.37;13.27;;;;;;;10.69;100.00;95224.47;5023503;28;20207;-82
2022/04/29 01:54:37;;;;;;;26.97;15.90;;;;;;;10.63;99.62;95227.88;5020449;28;20207;-83
2022/04/29 01:57:06;;;;;;;26.20;16.10;;;;;;;10.56;99.97;95234.91;5016817;28;20198;-82
2022/04/29 01:59:34;;;;;;;21.13;13.40;;;;;;;10.47;99.94;95221.31;5017125;28;20795;-82
2022/04/29 02:02:02;;;;;;;18.13;12.33;;;;;;;10.44;100.00;95226.13;5015794;28;20202;-81
2022/04/29 02:04:29;;;;;;;17.17;11.87;;;;;;;10.36;100.00;95226.34;5017028;28;20203;-80
2022/04/29 02:06:56;;;;;;;16.77;12.23;;;;;;;10.30;100.00;95222.75;5016468;28;20673;-82
2022/04/29 02:09:24;;;;;;;17.70;12.07;;;;;;;10.37;100.00;95222.72;5017270;28;20791;-82
2022/04/29 02:12:05;;;;;;;14.27;10.80;;;;;;;10.18;100.00;95213.97;5014338;28;20219;-82
2022/04/29 02:14:34;;;;;;;17.93;11.80;;;;;;;10.13;100.00;95227.53;5015117;28;20704;-81
2022/04/29 02:17:02;;;;;;;16.50;11.77;;;;;;;10.17;100.00;95233.94;5017462;28;20581;-82
2022/04/29 02:19:29;;;;;;;18.13;13.27;;;;;;;10.17;100.00;95214.97;5016216;28;20672;-83
2022/04/29 02:21:56;;;;;;;20.77;14.23;;;;;;;10.27;100.00;95229.13;5015908;28;20199;-82
2022/04/29 02:24:23;;;;;;;22.50;14.40;;;;;;;10.37;100.00;95231.31;5016700;28;20241;-81
2022/04/29 02:26:50;;;;;;;24.67;14.90;;;;;;;10.48;100.00;95238.50;5019893;28;20241;-79
2022/04/29 02:29:17;;;;;;;23.60;15.60;;;;;;;10.52;100.00;95233.69;5016732;28;20705;-81
2022/04/29 02:31:45;;;;;;;22.70;15.40;;;;;;;10.51;100.00;95242.47;5016811;28;20195;-80
2022/04/29 02:34:12;;;;;;;20.23;14.30;;;;;;;10.58;100.00;95231.09;5015108;28;20199;-81
2022/04/29 02:36:41;;;;;;;20.40;13.57;;;;;;;10.55;100.00;95223.69;5020369;28;20203;-80
2022/04/29 02:39:08;;;;;;;20.60;13.40;;;;;;;10.52;100.00;95231.09;5016890;28;20297;-82
2022/04/29 02:41:35;;;;;;;20.67;13.40;;;;;;;10.52;100.00;95231.91;5017379;28;20515;-81
2022/04/29 02:44:01;;;;;;;19.73;13.23;;;;;;;10.54;100.00;95242.09;5019327;28;20226;-81
2022/04/29 02:46:28;;;;;;;19.70;12.60;;;;;;;10.37;100.00;95239.13;5017436;28;20198;-81
2022/04/29 02:48:56;;;;;;;20.17;13.77;;;;;;;10.37;100.00;95236.53;5015677;28;20318;-81
2022/04/29 02:51:23;;;;;;;18.23;13.10;;;;;;;10.43;100.00;95229.72;5014988;28;20673;-80
2022/04/29 02:53:51;;;;;;;20.90;13.63;;;;;;;10.45;100.00;95236.31;5016622;28;20198;-80
2022/04/29 02:56:18;;;;;;;19.30;13.40;;;;;;;10.44;100.00;95233.91;5015452;28;20229;-80
2022/04/29 02:58:45;;;;;;;18.20;11.97;;;;;;;10.51;100.00;95232.09;5017461;28;20190;-81
2022/04/29 03:01:12;;;;;;;18.80;13.20;;;;;;;10.40;100.00;95225.72;5018449;28;20639;-80
2022/04/29 03:03:39;;;;;;;19.63;12.83;;;;;;;10.31;100.00;95220.94;5018521;28;20195;-80
2022/04/29 03:06:07;;;;;;;19.20;13.47;;;;;;;10.27;100.00;95221.34;5015902;28;20664;-81
2022/04/29 03:08:34;;;;;;;17.10;12.50;;;;;;;10.22;100.00;95230.72;5016947;28;20252;-82
2022/04/29 03:11:01;;;;;;;16.33;11.73;;;;;;;10.22;100.00;95236.72;5016398;28;20203;-82
2022/04/29 03:13:28;;;;;;;18.33;12.53;;;;;;;10.19;100.00;95234.53;5017021;28;20264;-82
2022/04/29 03:15:55;;;;;;;18.03;12.47;;;;;;;10.20;100.00;95219.75;4996770;28;20199;-79
2022/04/29 03:18:22;;;;;;;18.47;12.47;;;;;;;10.17;100.00;95233.13;5014117;28;20195;-80
2022/04/29 03:20:53;;;;;;;18.70;12.70;;;;;;;10.17;100.00;95235.72;5011443;28;20661;-77
2022/04/29 03:23:22;;;;;;;19.23;12.70;;;;;;;10.22;100.00;95230.72;4991627;28;20206;-76
2022/04/29 03:25:49;;;;;;;19.27;12.40;;;;;;;10.15;100.00;95235.94;5012645;28;20222;-77
2022/04/29 03:28:16;;;;;;;22.07;13.00;;;;;;;10.21;100.00;95229.16;5013645;28;20221;-77
2022/04/29 03:30:43;;;;;;;18.00;12.33;;;;;;;10.20;100.00;95232.75;5015183;28;20218;-77
2022/04/29 03:33:11;;;;;;;19.83;13.17;;;;;;;10.24;100.00;95226.16;5015474;28;20618;-80
2022/04/29 03:35:41;;;;;;;22.80;13.70;;;;;;;10.25;100.00;95218.16;5012539;28;20209;-80
2022/04/29 03:38:08;;;;;;;18.70;13.50;;;;;;;10.38;100.00;95238.13;5013487;28;20210;-81
2022/04/29 03:40:36;;;;;;;17.53;12.20;;;;;;;10.38;100.00;95251.13;5011434;28;20873;-80
2022/04/29 03:43:03;;;;;;;20.33;12.83;;;;;;;10.45;100.00;95238.09;5013059;28;20224;-81
2022/04/29 03:45:31;;;;;;;18.70;12.97;;;;;;;10.47;100.00;95238.72;5015068;28;20199;-81
2022/04/29 03:47:58;;;;;;;18.70;12.63;;;;;;;10.53;100.00;95245.69;5015357;28;20646;-80
2022/04/29 03:50:28;;;;;;;18.80;13.00;;;;;;;10.48;100.00;95243.69;5011299;28;20197;-78
2022/04/29 03:52:57;;;;;;;20.30;13.30;;;;;;;10.53;100.00;95251.72;5012942;28;20861;-77
2022/04/29 03:55:25;;;;;;;17.73;12.27;;;;;;;10.54;100.00;95255.06;5011442;28;20206;-78
2022/04/29 03:57:54;;;;;;;17.73;11.63;;;;;;;10.58;100.00;95256.28;5013335;28;20199;-77
2022/04/29 04:00:22;;;;;;;20.77;12.87;;;;;;;10.56;100.00;95251.28;5012697;28;20734;-77
2022/04/29 04:02:49;;;;;;;16.60;11.57;;;;;;;10.36;100.00;95254.91;5013493;28;20199;-77
2022/04/29 04:05:17;;;;;;;20.57;12.47;;;;;;;10.27;100.00;95256.13;5015465;28;20219;-77
2022/04/29 04:07:45;;;;;;;18.13;12.97;;;;;;;10.23;100.00;95253.91;5012780;28;20289;-77
2022/04/29 04:10:12;;;;;;;18.00;12.83;;;;;;;10.33;100.00;95256.13;5015621;28;20725;-77
2022/04/29 04:12:41;;;;;;;18.83;12.73;;;;;;;10.34;100.00;95264.69;5013215;28;20652;-78
2022/04/29 04:15:11;;;;;;;22.87;13.50;;;;;;;10.29;100.00;95254.13;5014607;28;21699;-78
2022/04/29 04:17:38;;;;;;;22.77;13.60;;;;;;;10.24;100.00;95259.91;5010480;28;20276;-78
2022/04/29 04:20:07;;;;;;;21.27;13.93;;;;;;;10.40;100.00;95258.69;5013093;28;21266;-78
2022/04/29 04:22:35;;;;;;;20.13;13.60;;;;;;;10.45;100.00;95259.69;5010868;28;20206;-78
2022/04/29 04:25:02;;;;;;;20.93;13.53;;;;;;;10.47;100.00;95259.50;5012503;28;20740;-77
2022/04/29 04:27:29;;;;;;;21.60;14.20;;;;;;;10.45;100.00;95256.28;5013515;28;20250;-77
2022/04/29 04:29:56;;;;;;;22.27;13.87;;;;;;;10.45;100.00;95256.28;5019619;28;20211;-78
2022/04/29 04:32:24;;;;;;;20.37;13.60;;;;;;;10.49;100.00;95262.69;5015161;28;20205;-78
2022/04/29 04:34:51;;;;;;;21.33;13.27;;;;;;;10.54;100.00;95258.47;5018178;28;20199;-78
2022/04/29 04:37:18;;;;;;;22.20;13.67;;;;;;;10.49;100.00;95260.09;5015462;28;20226;-78
2022/04/29 04:39:45;;;;;;;22.73;14.80;;;;;;;10.45;100.00;95264.88;5018408;28;20195;-78
2022/04/29 04:42:12;;;;;;;19.10;12.93;;;;;;;10.44;100.00;95267.69;5017662;28;20199;-77
2022/04/29 04:44:39;;;;;;;25.17;15.57;;;;;;;10.42;100.00;95261.91;5016606;28;20199;-79
2022/04/29 04:47:07;;;;;;;21.07;14.40;;;;;;;10.41;100.00;95260.31;5018618;28;20202;-79
2022/04/29 04:49:35;;;;;;;22.67;14.97;;;;;;;10.50;100.00;95272.91;5017401;28;20222;-74
2022/04/29 04:52:02;;;;;;;22.50;14.80;;;;;;;10.46;100.00;95266.50;5016351;28;20218;-76
2022/04/29 04:54:29;;;;;;;22.83;14.60;;;;;;;10.44;100.00;95267.69;5015736;28;20198;-75
2022/04/29 04:56:56;;;;;;;26.53;15.07;;;;;;;10.46;100.00;95266.50;5019213;28;20202;-74
2022/04/29 04:59:23;;;;;;;21.93;14.20;;;;;;;10.46;100.00;95266.50;5019321;28;20203;-75
2022/04/29 05:01:50;;;;;;;22.33;13.93;;;;;;;10.59;100.00;95256.06;5018206;28;20198;-73
2022/04/29 05:04:16;;;;;;;24.77;14.50;;;;;;;10.52;100.00;95268.28;5021325;28;20202;-74
2022/04/29 05:06:45;;;;;;;26.67;16.07;;;;;;;10.59;100.00;95263.09;5021003;28;20203;-73
2022/04/29 05:09:12;;;;;;;28.63;16.83;;;;;;;10.56;100.00;95260.91;5018256;28;20222;-89
2022/04/29 05:11:39;;;;;;;26.93;16.13;;;;;;;10.53;100.00;95258.69;5024755;28;20218;-74
2022/04/29 05:14:06;;;;;;;23.50;15.60;;;;;;;10.51;100.00;95258.88;5016908;28;20211;-73
2022/04/29 05:16:33;;;;;;;26.73;16.40;;;;;;;10.54;100.00;95255.06;5021685;28;20686;-74
2022/04/29 05:19:00;;;;;;;25.20;15.90;;;;;;;10.60;100.00;95254.28;5017047;28;20576;-74
2022/04/29 05:21:26;;;;;;;23.33;16.13;;;;;;;10.67;100.00;95258.47;5018485;28;20202;-73
2022/04/29 05:23:55;;;;;;;24.13;15.87;;;;;;;10.79;100.00;95259.41;5022683;28;20229;-73
2022/04/29 05:26:21;;;;;;;22.37;15.43;;;;;;;10.90;100.00;95252.81;5018097;28;20250;-74
2022/04/29 05:28:48;;;;;;;23.33;15.73;;;;;;;10.90;100.00;95265.81;5018163;28;20669;-74
2022/04/29 05:31:16;;;;;;;22.57;15.20;;;;;;;10.96;100.00;95259.00;5014966;28;20730;-74
2022/04/29 05:33:43;;;;;;;20.33;14.13;;;;;;;11.06;100.00;95267.94;5024524;28;20206;-74
2022/04/29 05:36:11;;;;;;;22.57;14.47;;;;;;;10.99;100.00;95256.78;5023964;28;20206;-74
2022/04/29 05:44:09;;;;;;;26.00;15.77;;;;;;;11.16;100.00;95262.31;5021841;28;20202;-76
2022/04/29 05:46:36;;;;;;;25.67;15.23;;;;;;;11.31;100.00;95268.06;5020070;28;20206;-76
2022/04/29 05:49:03;;;;;;;23.63;15.50;;;;;;;11.53;100.00;95268.56;5022484;28;20281;-74
2022/04/29 05:51:30;;;;;;;23.60;15.53;;;;;;;11.61;100.00;95263.09;5017058;28;20206;-74
2022/04/29 05:53:56;;;;;;;22.00;14.57;;;;;;;11.66;100.00;95266.66;5022571;28;20202;-75
2022/04/29 05:56:24;;;;;;;21.07;13.37;;;;;;;11.74;100.00;95270.88;5018971;28;20205;-74
2022/04/29 05:58:51;;;;;;;20.23;13.50;;;;;;;11.66;100.00;95263.28;5018283;28;20191;-75
2022/04/29 06:01:18;;;;;;;20.90;13.70;;;;;;;11.68;100.00;95267.28;5017554;28;20210;-75
2022/04/29 06:03:45;;;;;;;25.40;13.17;;;;;;;11.80;100.00;95273.44;5020657;28;20207;-75
2022/04/29 06:06:12;;;;;;;21.03;13.50;;;;;;;11.79;100.00;95274.44;5021398;28;20617;-74
2022/04/29 06:08:38;;;;;;;24.00;14.23;;;;;;;11.90;100.00;95278.19;5021078;28;20199;-74
2022/04/29 06:11:05;;;;;;;21.30;14.73;;;;;;;11.98;100.00;95285.75;5020199;28;20226;-74
2022/04/29 06:13:33;;;;;;;17.37;12.90;;;;;;;12.05;100.00;95294.31;5016767;28;20191;-85
2022/04/29 06:16:00;;;;;;;16.73;11.53;;;;;;;11.92;100.00;95295.19;5015465;28;20199;-80
2022/04/29 06:18:27;;;;;;;17.83;12.23;;;;;;;11.80;100.00;95296.88;5020007;28;20209;-80
2022/04/29 06:20:55;;;;;;;17.37;11.63;;;;;;;11.64;100.00;95293.94;5019607;28;20249;-78
2022/04/29 06:23:21;;;;;;;17.80;12.83;;;;;;;11.65;100.00;95300.75;5016051;28;20208;-80
2022/04/29 06:25:48;;;;;;;21.13;13.17;;;;;;;11.56;100.00;95299.38;5018744;28;20226;-78
2022/04/29 06:28:15;;;;;;;21.77;13.97;;;;;;;11.69;100.00;95286.28;5020855;28;20260;-82
2022/04/29 06:30:43;;;;;;;17.87;12.97;;;;;;;11.90;100.00;95297.22;5021557;28;20779;-80
2022/04/29 06:33:10;;;;;;;21.63;13.90;;;;;;;11.96;100.00;95295.56;5015794;28;20199;-82
2022/04/29 06:35:41;;;;;;;20.03;13.60;;;;;;;12.12;100.00;95297.66;5020764;28;20207;-80
2022/04/29 06:38:08;;;;;;;19.90;14.03;;;;;;;12.21;100.00;95296.41;5015309;28;20239;-79
2022/04/29 06:40:35;;;;;;;18.97;13.93;;;;;;;12.23;100.00;95294.41;5022852;28;20683;-80
2022/04/29 06:43:02;;;;;;;18.97;12.57;;;;;;;12.30;100.00;95295.13;5022341;28;20205;-79
2022/04/29 06:45:29;;;;;;;18.77;12.77;;;;;;;12.42;99.94;95301.25;5026947;28;20300;-80
2022/04/29 06:47:57;;;;;;;17.80;12.50;;;;;;;12.52;99.82;95291.13;5024440;28;20214;-80
2022/04/29 06:50:24;;;;;;;19.90;12.20;;;;;;;12.61;99.54;95291.66;5024374;28;20701;-78
2022/04/29 06:52:51;;;;;;;19.90;12.90;;;;;;;12.74;98.85;95290.75;5019336;28;20203;-79
2022/04/29 06:55:18;;;;;;;18.37;12.70;;;;;;;12.89;98.23;95299.03;5023808;28;20202;-80
2022/04/29 06:57:46;;;;;;;19.13;12.93;;;;;;;12.99;97.89;95297.50;5009827;28;20202;-80
2022/04/29 07:00:14;;;;;;;17.53;12.17;;;;;;;13.12;97.65;95291.41;5017859;28;20199;-81
2022/04/29 07:02:41;;;;;;;19.93;13.33;;;;;;;12.98;97.38;95284.69;5021749;28;20203;-84
2022/04/29 07:05:12;;;;;;;18.53;13.10;;;;;;;12.97;97.26;95289.13;5024059;28;20231;-84
2022/04/29 07:07:39;;;;;;;18.80;12.30;;;;;;;12.96;96.98;95294.53;5020040;28;20261;-87
2022/04/29 07:10:07;;;;;;;18.70;12.77;;;;;;;13.02;97.50;95293.66;5016645;28;20241;-77
2022/04/29 07:12:40;;;;;;;17.33;12.57;;;;;;;13.08;96.92;95287.63;5022638;28;20280;-79
2022/04/29 07:15:08;;;;;;;16.63;11.30;;;;;;;13.14;95.50;95288.56;5024162;28;20206;-79
2022/04/29 07:17:35;;;;;;;15.67;11.47;;;;;;;13.28;94.67;95290.81;5021609;28;20202;-78
2022/04/29 07:20:02;;;;;;;19.53;13.00;;;;;;;13.07;95.45;95280.78;5016701;28;20192;-77
2022/04/29 07:22:30;;;;;;;15.37;12.27;;;;;;;13.18;95.57;95284.50;5018807;28;20199;-79
2022/04/29 07:24:57;;;;;;;15.87;11.23;;;;;;;13.36;93.58;95289.72;5017815;28;20386;-79
2022/04/29 07:27:24;;;;;;;19.00;11.43;;;;;;;13.49;93.31;95287.75;5015676;28;20196;-79
2022/04/29 07:29:51;;;;;;;18.90;12.60;;;;;;;13.63;92.40;95294.41;5016157;28;20314;-78
2022/04/29 07:32:18;;;;;;;18.17;11.57;;;;;;;13.77;89.87;95292.41;5021458;28;20202;-78
2022/04/29 07:42:59;;;;;;;12.73;9.67;;;;;;;14.15;87.48;95294.69;5025537;28;20685;-79
2022/04/29 07:45:26;;;;;;;14.07;10.30;;;;;;;14.36;86.34;95290.78;5020125;28;20673;-79
2022/04/29 07:47:56;;;;;;;13.40;9.07;;;;;;;14.45;84.96;95297.28;5022654;28;20669;-79
2022/04/29 07:50:22;;;;;;;11.10;8.80;;;;;;;14.50;82.70;95298.19;5020893;28;20215;-78
2022/04/29 07:52:51;;;;;;;11.90;9.00;;;;;;;14.59;82.23;95296.03;5021991;28;20257;-79
2022/04/29 07:55:18;;;;;;;11.70;9.10;;;;;;;14.42;82.99;95293.28;5019729;28;20577;-79
2022/04/29 07:57:44;;;;;;;15.60;9.63;;;;;;;14.48;83.54;95295.00;5021613;28;20203;-80
2022/04/29 08:00:13;;;;;;;15.20;10.07;;;;;;;14.60;87.92;95284.56;5025763;28;20676;-81
2022/04/29 08:02:40;;;;;;;14.70;10.53;;;;;;;14.72;84.13;95295.81;5022480;28;20674;-78
2022/04/29 08:05:07;;;;;;;16.67;10.57;;;;;;;14.68;84.58;95295.47;5026192;28;20242;-83
2022/04/29 08:07:34;;;;;;;16.43;12.23;;;;;;;14.46;83.47;95286.56;5026182;28;20655;-83
2022/04/29 08:10:02;;;;;;;19.70;13.17;;;;;;;14.38;84.41;95294.75;5020851;28;20759;-84
2022/04/29 08:12:29;;;;;;;15.03;11.87;;;;;;;14.37;84.53;95287.16;5021386;28;20843;-83
2022/04/29 08:14:57;;;;;;;15.93;10.60;;;;;;;14.41;83.95;95285.66;5021872;28;20279;-83
2022/04/29 08:17:24;;;;;;;17.47;10.23;;;;;;;14.46;83.30;95278.72;5023979;28;20226;-85
2022/04/29 08:19:51;;;;;;;16.47;10.03;;;;;;;14.57;82.87;95291.00;5023680;28;20207;-81
2022/04/29 08:22:18;;;;;;;13.90;9.87;;;;;;;14.57;81.79;95283.16;5030399;28;20278;-80
2022/04/29 08:24:45;;;;;;;13.93;9.70;;;;;;;14.71;81.37;95291.59;5024200;28;20222;-81
2022/04/29 08:27:14;;;;;;;11.37;8.67;;;;;;;14.75;78.98;95282.25;5025612;28;20199;-80
2022/04/29 08:29:41;;;;;;;12.60;8.73;;;;;;;14.46;80.77;95283.97;5024807;28;20589;-80
2022/04/29 08:32:08;;;;;;;14.60;8.20;;;;;;;14.48;79.51;95287.16;5020638;28;20214;-80
2022/04/29 08:34:35;;;;;;;10.43;7.97;;;;;;;14.33;79.07;95286.78;5021029;28;20196;-80
2022/04/29 08:37:03;;;;;;;11.93;8.40;;;;;;;14.23;78.78;95280.50;5029703;28;20203;-81
2022/04/29 08:39:31;;;;;;;12.10;9.20;;;;;;;14.26;79.92;95298.34;5025328;28;20194;-81
2022/04/29 08:42:00;;;;;;;11.03;8.47;;;;;;;14.14;80.26;95286.03;5020401;28;20210;-82
2022/04/29 08:44:30;;;;;;;13.33;8.73;;;;;;;14.23;80.89;95284.69;5020268;28;20578;-80
2022/04/29 08:46:58;;;;;;;11.47;8.40;;;;;;;14.34;79.55;95285.78;5026975;28;20260;-82
2022/04/29 08:49:27;;;;;;;10.67;7.97;;;;;;;14.47;79.19;95279.53;5024231;28;20207;-79
2022/04/29 08:51:57;;;;;;;11.60;7.73;;;;;;;14.53;76.57;95281.25;5023344;28;20214;-80
2022/04/29 08:59:59;;;;;;;11.67;7.73;;;;;;;15.04;75.00;95278.72;5019047;28;20241;-80
2022/04/29 09:02:28;;;;;;;9.27;7.43;;;;;;;15.24;74.12;95276.53;5026389;28;20599;-80
2022/04/29 09:04:57;;;;;;;13.37;8.10;;;;;;;15.39;73.92;95273.41;5020613;28;20299;-82
2022/04/29 09:07:54;;;;;;;10.33;7.83;;;;;;;15.61;73.86;95263.91;5021452;28;20209;-83
2022/04/29 09:10:22;;;;;;;7.93;7.03;;;;;;;15.54;72.01;95258.03;5017034;28;20211;-80
2022/04/29 09:12:49;;;;;;;9.40;7.30;;;;;;;15.62;72.13;95265.50;5019542;28;20198;-80
2022/04/29 09:15:18;;;;;;;9.87;7.50;;;;;;;15.74;72.02;95266.28;5018446;28;20196;-81
2022/04/29 09:17:46;;;;;;;11.83;7.90;;;;;;;15.81;72.84;95264.28;5017699;28;20192;-82
2022/04/29 09:20:18;;;;;;;8.80;7.50;;;;;;;15.93;72.10;95260.84;5020807;28;20725;-80
2022/04/29 09:22:47;;;;;;;10.10;8.07;;;;;;;15.90;71.79;95257.63;5020382;28;20221;-80
2022/04/29 09:25:15;;;;;;;8.30;7.10;;;;;;;15.85;70.09;95257.56;5019198;28;20254;-79
2022/04/29 09:27:59;;;;;;;10.67;7.73;;;;;;;15.63;71.17;95261.88;5022474;28;20583;-80
2022/04/29 09:30:39;;;;;;;9.50;7.50;;;;;;;15.53;70.95;95260.88;5022499;28;20264;-79
2022/04/29 09:33:08;;;;;;;10.60;7.77;;;;;;;15.57;72.14;95254.94;5021048;28;20201;-80
2022/04/29 09:35:39;;;;;;;8.83;7.00;;;;;;;15.76;71.30;95263.41;5019589;28;20291;-78
2022/04/29 09:41:02;;;;;;;15.53;8.60;;;;;;;15.77;70.05;95262.38;4985869;28;20526;-78
2022/04/29 09:43:42;;;;;;;9.70;7.43;;;;;;;15.77;69.30;95265.81;5017201;28;20207;-78
2022/04/29 09:46:17;;;;;;;9.63;7.70;;;;;;;15.87;68.56;95271.22;5020254;28;20198;-78
2022/04/29 09:48:54;;;;;;;10.23;7.57;;;;;;;15.91;68.77;95258.44;5024431;28;20252;-79
2022/04/29 09:51:44;;;;;;;12.93;8.00;;;;;;;16.08;68.60;95276.81;5016444;28;20230;-78
2022/04/29 09:54:15;;;;;;;9.23;8.00;;;;;;;16.06;69.20;95263.16;5020281;28;20222;-78
2022/04/29 09:56:42;;;;;;;10.83;7.03;;;;;;;15.97;67.22;95264.56;5019264;28;20279;-79
2022/04/29 09:59:09;;;;;;;8.83;7.33;;;;;;;15.82;68.28;95262.47;5022245;28;20202;-80
2022/04/29 10:01:37;;;;;;;12.10;7.70;;;;;;;15.74;68.75;95261.03;5017144;28;20285;-81
2022/04/29 10:04:05;;;;;;;9.47;7.33;;;;;;;15.86;68.31;95264.41;5019844;28;20195;-79
2022/04/29 10:06:36;;;;;;;8.60;7.20;;;;;;;15.81;68.03;95264.28;5017439;28;20204;-78
2022/04/29 10:09:04;;;;;;;11.77;8.40;;;;;;;15.91;68.75;95258.44;5017737;28;20685;-78
2022/04/29 10:11:35;;;;;;;9.97;7.93;;;;;;;16.15;68.18;95251.25;5018663;28;20717;-80
2022/04/29 10:14:04;;;;;;;8.37;6.83;;;;;;;16.31;67.87;95253.06;5017029;28;20685;-80
2022/04/29 10:16:33;;;;;;;8.03;6.73;;;;;;;16.49;66.67;95250.22;5016913;28;20820;-79
2022/04/29 10:21:53;;;;;;;9.03;6.80;;;;;;;16.96;65.73;95238.31;5016520;28;20198;-79
2022/04/29 10:24:24;;;;;;;10.13;7.60;;;;;;;16.96;65.31;95240.16;5018635;28;20705;-81
2022/04/29 10:26:54;;;;;;;8.87;7.27;;;;;;;16.91;66.41;95235.63;5017065;28;20199;-79
2022/04/29 10:29:21;;;;;;;11.23;7.27;;;;;;;17.07;66.01;95230.56;5016093;28;20191;-80
2022/04/29 10:32:06;;;;;;;7.30;6.37;;;;;;;17.03;64.52;95235.50;5018894;28;20219;-80
2022/04/29 10:34:35;;;;;;;7.87;6.80;;;;;;;16.85;64.81;95233.94;5021412;28;20202;-81
2022/04/29 10:37:10;;;;;;;8.83;7.60;;;;;;;16.91;66.58;95235.63;5019137;28;20202;-80
2022/04/29 10:39:37;;;;;;;9.33;7.77;;;;;;;17.09;65.67;95236.34;5020606;28;20199;-79
2022/04/29 10:42:06;;;;;;;7.83;7.03;;;;;;;17.15;65.05;95232.75;5020517;28;20199;-79
2022/04/29 10:44:33;;;;;;;9.30;7.40;;;;;;;16.88;65.24;95220.34;5018100;28;20294;-80
2022/04/29 10:47:25;;;;;;;11.40;7.63;;;;;;;17.16;65.71;95229.91;5017104;28;20587;-80
2022/04/29 10:49:53;;;;;;;9.53;8.40;;;;;;;17.83;64.05;95229.63;5023295;28;20291;-78
2022/04/29 10:52:27;;;;;;;9.43;8.33;;;;;;;18.59;63.34;95226.59;5014574;28;20215;-77
2022/04/29 10:54:58;;;;;;;9.60;7.95;;;;;;;18.84;61.73;95225.97;5019315;28;20209;-78
2022/04/29 10:57:41;;;;;;;10.48;8.27;;;;;;;18.76;62.67;95217.75;5020678;28;20199;-76
2022/04/29 11:00:13;;;;;;;14.18;8.40;;;;;;;18.91;62.31;95213.34;5019334;28;20198;-76
2022/04/29 11:02:40;;;;;;;17.52;8.45;;;;;;;18.97;62.02;95206.25;5018641;28;20200;-80
2022/04/29 11:05:29;;;;;;;9.82;8.40;;;;;;;19.00;60.68;95205.75;5019558;28;20286;-81
2022/04/29 11:08:07;;;;;;;11.70;7.82;;;;;;;19.32;59.62;95193.25;5019735;28;20688;-79
2022/04/29 11:10:58;;;;;;;9.32;7.95;;;;;;;19.08;60.08;95194.72;5022807;28;20222;-80
2022/04/29 11:13:30;;;;;;;11.77;9.10;;;;;;;19.30;60.61;95187.44;5018904;28;20260;-79
2022/04/29 11:16:08;;;;;;;9.43;8.30;;;;;;;19.59;58.91;95177.28;5018632;28;20197;-78
2022/04/29 11:18:35;;;;;;;11.60;7.13;;;;;;;19.80;57.99;95187.56;5019736;28;20290;-79
2022/04/29 11:26:43;;;;;;;8.23;7.43;;;;;;;20.60;55.18;95170.19;5017749;28;20240;-79
2022/04/29 11:29:11;;;;;;;8.95;7.28;;;;;;;20.59;54.18;95167.78;5016562;28;20207;-78
2022/04/29 11:31:39;;;;;;;13.32;9.18;;;;;;;20.91;53.87;95170.88;4998843;28;20681;-79
2022/04/29 11:34:07;;;;;;;9.43;7.57;;;;;;;20.66;52.30;95174.41;5019136;28;20227;-79
2022/04/29 11:36:36;;;;;;;8.23;7.22;;;;;;;20.52;50.70;95162.00;5019194;28;20201;-79
2022/04/29 11:39:08;;;;;;;9.52;7.10;;;;;;;20.64;50.12;95163.28;5023982;28;20226;-79
2022/04/29 11:41:34;;;;;;;7.88;7.07;;;;;;;20.53;49.69;95155.66;5022830;28;20191;-79
2022/04/29 11:44:03;;;;;;;8.38;7.43;;;;;;;20.52;49.85;95154.09;5023539;28;20195;-79
2022/04/29 11:46:31;;;;;;;9.38;7.30;;;;;;;20.45;50.55;95148.28;5024396;28;20191;-78
2022/04/29 11:48:59;;;;;;;11.68;7.82;;;;;;;19.94;52.23;95148.25;5023102;28;20284;-78
2022/04/29 11:51:27;;;;;;;8.43;6.95;;;;;;;19.86;51.21;95142.72;5023351;28;20280;-79
2022/04/29 11:54:01;;;;;;;9.65;7.28;;;;;;;20.05;51.76;95144.59;5022450;28;20201;-79